首页
METAR-TAF:

METAR-TAF

机场 :

RAF

Spadeadam, 英格兰

纬度: 55-03N, 经度: 002-33W, 海拔: 325米

当前天气观测

该预报发布于48分钟前的08:50 UTC
风速10节,风向
温度 5°C
湿度 100%
气压 996 hPa
能見度: 7000
散云层高于700英尺
多云层高于2300英尺
小雨, 毛毛雨

METAR: EGOM 220850Z 08010KT 7000 -RADZ SCT007 BKN023 05/05 Q0996 GRN

时间: 09:38 (09:38 UTC)


TAF: 丢失

超过4000个机场的气象观测和天气预报(METAR&TAF报告)。

可查询的气象台以黄色和红色小点在地图上表示。

将鼠标移到小点上方,可查看气象台名称。

然后点击查看天气观测和预报。

如需切换地图:点击带黑十字的绿色按钮放大地图;点击带横线的绿色按钮缩小地图;或者点击绿色箭头查看邻近地区的地图。


METAR-TAF: